Port Canaveral, Florida
Current Conditions -  °F | °C
As of 1:58 PM on Thursday 30 Oct 2014 (Local Time) from KXMR Reporting Station
Clear Clear  
Wind Chill: 82°   Ceiling: Unl
Heat Index: 84°   Visibility: 10mi
Dew Point: 68°   Wind: 5mph
Humidity: 63%   Direction: 100°E
Pressure: 29.91"   Gusts: NA
Location:  28.3971°N, 80.6086°W
Report Text: KXMR 301758Z AUTO 10004KT 10SM CLR 28/20 A2991 RMK AO2 SLP132 T02750198 10284 20181 58021 $
Loading
Personal Weather Stations






























Interactive Weather Map
Tropical Storm Tracking
New forecast layout! Learn more

10-Day Weather Forecast

Advertisements
Track Severe Weather on mobile